sensor_id;sensor_type;location;lat;lon;timestamp;temperature;humidity
25937;DHT22;13733;51.178;4.450;2023-09-30T00:00:27;14.40;99.90
25937;DHT22;13733;51.178;4.450;2023-09-30T00:02:53;14.40;99.90
25937;DHT22;13733;51.178;4.450;2023-09-30T00:05:18;14.40;99.90
25937;DHT22;13733;51.178;4.450;2023-09-30T00:07:47;14.40;99.90
25937;DHT22;13733;51.178;4.450;2023-09-30T00:10:13;14.40;99.90
25937;DHT22;13733;51.178;4.450;2023-09-30T00:12:40;14.30;99.90
25937;DHT22;13733;51.178;4.450;2023-09-30T00:15:06;14.30;99.90
25937;DHT22;13733;51.178;4.450;2023-09-30T00:17:32;14.30;99.90
25937;DHT22;13733;51.178;4.450;2023-09-30T00:19:58;14.20;99.90
25937;DHT22;13733;51.178;4.450;2023-09-30T00:22:25;14.20;99.90
25937;DHT22;13733;51.178;4.450;2023-09-30T00:24:52;14.20;99.90
25937;DHT22;13733;51.178;4.450;2023-09-30T00:27:18;14.20;99.90
25937;DHT22;13733;51.178;4.450;2023-09-30T00:29:43;14.10;99.90
25937;DHT22;13733;51.178;4.450;2023-09-30T00:32:09;14.10;99.90
25937;DHT22;13733;51.178;4.450;2023-09-30T00:34:36;14.10;99.90
25937;DHT22;13733;51.178;4.450;2023-09-30T00:37:02;14.10;99.90
25937;DHT22;13733;51.178;4.450;2023-09-30T00:39:28;14.10;99.90
25937;DHT22;13733;51.178;4.450;2023-09-30T00:41:58;14.10;99.90
25937;DHT22;13733;51.178;4.450;2023-09-30T00:44:28;14.10;99.90
25937;DHT22;13733;51.178;4.450;2023-09-30T00:46:55;14.00;99.90
25937;DHT22;13733;51.178;4.450;2023-09-30T00:49:22;14.00;99.90
25937;DHT22;13733;51.178;4.450;2023-09-30T00:51:49;13.90;99.90
25937;DHT22;13733;51.178;4.450;2023-09-30T00:54:15;13.90;99.90
25937;DHT22;13733;51.178;4.450;2023-09-30T00:56:46;13.90;99.90
25937;DHT22;13733;51.178;4.450;2023-09-30T00:59:16;13.90;99.90
25937;DHT22;13733;51.178;4.450;2023-09-30T01:01:45;13.90;99.90
25937;DHT22;13733;51.178;4.450;2023-09-30T01:04:11;13.80;99.90
25937;DHT22;13733;51.178;4.450;2023-09-30T01:06:38;13.70;99.90
25937;DHT22;13733;51.178;4.450;2023-09-30T01:09:04;13.70;99.90
25937;DHT22;13733;51.178;4.450;2023-09-30T01:11:31;13.70;99.90
25937;DHT22;13733;51.178;4.450;2023-09-30T01:13:57;13.60;99.90
25937;DHT22;13733;51.178;4.450;2023-09-30T01:16:23;13.70;99.90
25937;DHT22;13733;51.178;4.450;2023-09-30T01:18:49;13.60;99.90
25937;DHT22;13733;51.178;4.450;2023-09-30T01:21:15;13.60;99.90
25937;DHT22;13733;51.178;4.450;2023-09-30T01:23:41;13.60;99.90
25937;DHT22;13733;51.178;4.450;2023-09-30T01:26:11;13.60;99.90
25937;DHT22;13733;51.178;4.450;2023-09-30T01:28:40;13.60;99.90
25937;DHT22;13733;51.178;4.450;2023-09-30T01:31:06;13.50;99.90
25937;DHT22;13733;51.178;4.450;2023-09-30T01:33:34;13.50;99.90
25937;DHT22;13733;51.178;4.450;2023-09-30T01:36:02;13.50;99.90
25937;DHT22;13733;51.178;4.450;2023-09-30T01:38:30;13.40;99.90
25937;DHT22;13733;51.178;4.450;2023-09-30T01:40:56;13.40;99.90
25937;DHT22;13733;51.178;4.450;2023-09-30T01:43:22;13.40;99.90
25937;DHT22;13733;51.178;4.450;2023-09-30T01:45:48;13.40;99.90
25937;DHT22;13733;51.178;4.450;2023-09-30T01:48:14;13.40;99.90
25937;DHT22;13733;51.178;4.450;2023-09-30T01:50:40;13.30;99.90
25937;DHT22;13733;51.178;4.450;2023-09-30T01:53:09;13.30;99.90
25937;DHT22;13733;51.178;4.450;2023-09-30T01:55:36;13.30;99.90
25937;DHT22;13733;51.178;4.450;2023-09-30T01:58:03;13.20;99.90
25937;DHT22;13733;51.178;4.450;2023-09-30T02:00:29;13.20;99.90
25937;DHT22;13733;51.178;4.450;2023-09-30T02:02:56;13.10;99.90
25937;DHT22;13733;51.178;4.450;2023-09-30T02:05:22;13.10;99.90
25937;DHT22;13733;51.178;4.450;2023-09-30T02:07:50;13.10;99.90
25937;DHT22;13733;51.178;4.450;2023-09-30T02:10:16;13.10;99.90
25937;DHT22;13733;51.178;4.450;2023-09-30T02:12:44;13.10;99.90
25937;DHT22;13733;51.178;4.450;2023-09-30T02:15:12;13.10;99.90
25937;DHT22;13733;51.178;4.450;2023-09-30T02:17:38;13.10;99.90
25937;DHT22;13733;51.178;4.450;2023-09-30T02:20:05;13.10;99.90
25937;DHT22;13733;51.178;4.450;2023-09-30T02:22:39;13.10;99.90
25937;DHT22;13733;51.178;4.450;2023-09-30T02:25:05;13.20;99.90
25937;DHT22;13733;51.178;4.450;2023-09-30T02:27:34;13.10;99.90
25937;DHT22;13733;51.178;4.450;2023-09-30T02:30:00;13.10;99.90
25937;DHT22;13733;51.178;4.450;2023-09-30T02:32:26;13.20;99.90
25937;DHT22;13733;51.178;4.450;2023-09-30T02:34:52;13.20;99.90
25937;DHT22;13733;51.178;4.450;2023-09-30T02:37:19;13.20;99.90
25937;DHT22;13733;51.178;4.450;2023-09-30T02:39:45;13.30;99.90
25937;DHT22;13733;51.178;4.450;2023-09-30T02:42:11;13.30;99.90
25937;DHT22;13733;51.178;4.450;2023-09-30T02:44:37;13.40;99.90
25937;DHT22;13733;51.178;4.450;2023-09-30T02:47:02;13.50;99.90
25937;DHT22;13733;51.178;4.450;2023-09-30T02:49:30;13.40;99.90
25937;DHT22;13733;51.178;4.450;2023-09-30T02:51:57;13.40;99.90
25937;DHT22;13733;51.178;4.450;2023-09-30T02:54:23;13.40;99.90
25937;DHT22;13733;51.178;4.450;2023-09-30T02:56:49;13.40;99.90
25937;DHT22;13733;51.178;4.450;2023-09-30T02:59:15;13.30;99.90
25937;DHT22;13733;51.178;4.450;2023-09-30T03:01:42;13.30;99.90
25937;DHT22;13733;51.178;4.450;2023-09-30T03:04:10;13.20;99.90
25937;DHT22;13733;51.178;4.450;2023-09-30T03:06:38;13.20;99.90
25937;DHT22;13733;51.178;4.450;2023-09-30T03:09:04;13.20;99.90
25937;DHT22;13733;51.178;4.450;2023-09-30T03:11:31;13.20;99.90
25937;DHT22;13733;51.178;4.450;2023-09-30T03:13:57;13.20;99.90
25937;DHT22;13733;51.178;4.450;2023-09-30T03:16:24;13.20;99.90
25937;DHT22;13733;51.178;4.450;2023-09-30T03:18:50;13.10;99.90
25937;DHT22;13733;51.178;4.450;2023-09-30T03:21:16;13.10;99.90
25937;DHT22;13733;51.178;4.450;2023-09-30T03:23:43;13.10;99.90
25937;DHT22;13733;51.178;4.450;2023-09-30T03:26:09;13.20;99.90
25937;DHT22;13733;51.178;4.450;2023-09-30T03:28:38;13.10;99.90
25937;DHT22;13733;51.178;4.450;2023-09-30T03:31:05;13.10;99.90
25937;DHT22;13733;51.178;4.450;2023-09-30T03:33:32;13.10;99.90
25937;DHT22;13733;51.178;4.450;2023-09-30T03:35:58;13.10;99.90
25937;DHT22;13733;51.178;4.450;2023-09-30T03:38:25;13.10;99.90
25937;DHT22;13733;51.178;4.450;2023-09-30T03:40:51;13.10;99.90
25937;DHT22;13733;51.178;4.450;2023-09-30T03:43:19;13.00;99.90
25937;DHT22;13733;51.178;4.450;2023-09-30T03:45:46;13.00;99.90
25937;DHT22;13733;51.178;4.450;2023-09-30T03:48:12;13.00;99.90
25937;DHT22;13733;51.178;4.450;2023-09-30T03:50:38;13.00;99.90
25937;DHT22;13733;51.178;4.450;2023-09-30T03:53:05;13.00;99.90
25937;DHT22;13733;51.178;4.450;2023-09-30T03:55:33;13.00;99.90
25937;DHT22;13733;51.178;4.450;2023-09-30T03:57:59;13.00;99.90
25937;DHT22;13733;51.178;4.450;2023-09-30T04:00:26;12.90;99.90
25937;DHT22;13733;51.178;4.450;2023-09-30T04:02:54;12.90;99.90
25937;DHT22;13733;51.178;4.450;2023-09-30T04:05:23;12.80;99.90
25937;DHT22;13733;51.178;4.450;2023-09-30T04:07:56;12.90;99.90
25937;DHT22;13733;51.178;4.450;2023-09-30T04:10:22;12.80;99.90
25937;DHT22;13733;51.178;4.450;2023-09-30T04:12:51;12.80;99.90
25937;DHT22;13733;51.178;4.450;2023-09-30T04:15:18;12.90;99.90
25937;DHT22;13733;51.178;4.450;2023-09-30T04:17:44;12.90;99.90
25937;DHT22;13733;51.178;4.450;2023-09-30T04:20:10;12.90;99.90
25937;DHT22;13733;51.178;4.450;2023-09-30T04:22:44;12.90;99.90
25937;DHT22;13733;51.178;4.450;2023-09-30T04:25:15;12.90;99.90
25937;DHT22;13733;51.178;4.450;2023-09-30T04:27:45;12.90;99.90
25937;DHT22;13733;51.178;4.450;2023-09-30T04:30:13;12.90;99.90
25937;DHT22;13733;51.178;4.450;2023-09-30T04:32:41;12.80;99.90
25937;DHT22;13733;51.178;4.450;2023-09-30T04:35:07;12.80;99.90
25937;DHT22;13733;51.178;4.450;2023-09-30T04:37:37;12.80;99.90
25937;DHT22;13733;51.178;4.450;2023-09-30T04:40:08;12.80;99.90
25937;DHT22;13733;51.178;4.450;2023-09-30T04:42:46;12.70;99.90
25937;DHT22;13733;51.178;4.450;2023-09-30T04:45:15;12.80;99.90
25937;DHT22;13733;51.178;4.450;2023-09-30T04:47:46;12.80;99.90
25937;DHT22;13733;51.178;4.450;2023-09-30T04:50:14;12.90;99.90
25937;DHT22;13733;51.178;4.450;2023-09-30T04:52:40;12.90;99.90
25937;DHT22;13733;51.178;4.450;2023-09-30T04:55:07;13.00;99.90
25937;DHT22;13733;51.178;4.450;2023-09-30T04:57:34;12.90;99.90
25937;DHT22;13733;51.178;4.450;2023-09-30T05:00:00;12.80;99.90
25937;DHT22;13733;51.178;4.450;2023-09-30T05:02:27;12.70;99.90
25937;DHT22;13733;51.178;4.450;2023-09-30T05:04:53;12.60;99.90
25937;DHT22;13733;51.178;4.450;2023-09-30T05:07:20;12.60;99.90
25937;DHT22;13733;51.178;4.450;2023-09-30T05:09:47;12.60;99.90
25937;DHT22;13733;51.178;4.450;2023-09-30T05:12:13;12.70;99.90
25937;DHT22;13733;51.178;4.450;2023-09-30T05:14:39;12.70;99.90
25937;DHT22;13733;51.178;4.450;2023-09-30T05:17:05;12.80;99.90
25937;DHT22;13733;51.178;4.450;2023-09-30T05:19:31;12.80;99.90
25937;DHT22;13733;51.178;4.450;2023-09-30T05:21:58;12.80;99.90
25937;DHT22;13733;51.178;4.450;2023-09-30T05:24:23;12.80;99.90
25937;DHT22;13733;51.178;4.450;2023-09-30T05:26:51;12.80;99.90
25937;DHT22;13733;51.178;4.450;2023-09-30T05:29:16;12.80;99.90
25937;DHT22;13733;51.178;4.450;2023-09-30T05:31:42;12.70;99.90
25937;DHT22;13733;51.178;4.450;2023-09-30T05:34:08;12.70;99.90
25937;DHT22;13733;51.178;4.450;2023-09-30T05:36:35;12.80;99.90
25937;DHT22;13733;51.178;4.450;2023-09-30T05:39:01;12.80;99.90
25937;DHT22;13733;51.178;4.450;2023-09-30T05:41:28;12.70;99.90
25937;DHT22;13733;51.178;4.450;2023-09-30T05:43:55;12.70;99.90
25937;DHT22;13733;51.178;4.450;2023-09-30T05:46:20;12.80;99.90
25937;DHT22;13733;51.178;4.450;2023-09-30T05:48:47;12.90;99.90
25937;DHT22;13733;51.178;4.450;2023-09-30T05:51:13;12.90;99.90
25937;DHT22;13733;51.178;4.450;2023-09-30T05:53:41;12.80;99.90
25937;DHT22;13733;51.178;4.450;2023-09-30T05:56:08;12.70;99.90
25937;DHT22;13733;51.178;4.450;2023-09-30T05:58:37;12.80;99.90
25937;DHT22;13733;51.178;4.450;2023-09-30T06:01:08;12.80;99.90
25937;DHT22;13733;51.178;4.450;2023-09-30T06:03:37;12.80;99.90
25937;DHT22;13733;51.178;4.450;2023-09-30T06:06:15;12.80;99.90
25937;DHT22;13733;51.178;4.450;2023-09-30T06:08:42;12.70;99.90
25937;DHT22;13733;51.178;4.450;2023-09-30T06:11:18;12.80;99.90
25937;DHT22;13733;51.178;4.450;2023-09-30T06:13:45;12.80;99.90
25937;DHT22;13733;51.178;4.450;2023-09-30T06:16:12;12.80;99.90
25937;DHT22;13733;51.178;4.450;2023-09-30T06:18:39;12.80;99.90
25937;DHT22;13733;51.178;4.450;2023-09-30T06:21:05;12.80;99.90
25937;DHT22;13733;51.178;4.450;2023-09-30T06:23:31;12.80;99.90
25937;DHT22;13733;51.178;4.450;2023-09-30T06:25:57;12.80;99.90
25937;DHT22;13733;51.178;4.450;2023-09-30T06:28:25;12.90;99.90
25937;DHT22;13733;51.178;4.450;2023-09-30T06:30:54;13.00;99.90
25937;DHT22;13733;51.178;4.450;2023-09-30T06:33:21;13.20;99.90
25937;DHT22;13733;51.178;4.450;2023-09-30T06:35:48;13.20;99.90
25937;DHT22;13733;51.178;4.450;2023-09-30T06:38:20;13.10;99.90
25937;DHT22;13733;51.178;4.450;2023-09-30T06:40:47;13.10;99.90
25937;DHT22;13733;51.178;4.450;2023-09-30T06:43:16;13.20;99.90
25937;DHT22;13733;51.178;4.450;2023-09-30T06:45:42;13.40;99.90
25937;DHT22;13733;51.178;4.450;2023-09-30T06:48:09;13.50;99.90
25937;DHT22;13733;51.178;4.450;2023-09-30T06:50:45;13.60;99.90
25937;DHT22;13733;51.178;4.450;2023-09-30T06:53:18;13.70;99.90
25937;DHT22;13733;51.178;4.450;2023-09-30T06:55:47;13.80;99.90
25937;DHT22;13733;51.178;4.450;2023-09-30T06:58:13;13.70;99.90
25937;DHT22;13733;51.178;4.450;2023-09-30T07:00:43;13.70;99.90
25937;DHT22;13733;51.178;4.450;2023-09-30T07:03:09;13.70;99.90
25937;DHT22;13733;51.178;4.450;2023-09-30T07:05:36;13.90;99.90
25937;DHT22;13733;51.178;4.450;2023-09-30T07:08:02;13.90;99.90
25937;DHT22;13733;51.178;4.450;2023-09-30T07:10:28;14.00;99.90
25937;DHT22;13733;51.178;4.450;2023-09-30T07:12:55;14.10;99.90
25937;DHT22;13733;51.178;4.450;2023-09-30T07:15:21;14.20;99.90
25937;DHT22;13733;51.178;4.450;2023-09-30T07:17:47;14.10;99.90
25937;DHT22;13733;51.178;4.450;2023-09-30T07:20:13;14.10;99.90
25937;DHT22;13733;51.178;4.450;2023-09-30T07:22:39;14.00;99.90
25937;DHT22;13733;51.178;4.450;2023-09-30T07:25:06;14.00;99.90
25937;DHT22;13733;51.178;4.450;2023-09-30T07:27:32;14.10;99.90
25937;DHT22;13733;51.178;4.450;2023-09-30T07:29:58;14.20;99.90
25937;DHT22;13733;51.178;4.450;2023-09-30T07:32:24;14.30;99.90
25937;DHT22;13733;51.178;4.450;2023-09-30T07:34:51;14.40;99.90
25937;DHT22;13733;51.178;4.450;2023-09-30T07:37:17;14.40;99.90
25937;DHT22;13733;51.178;4.450;2023-09-30T07:39:44;14.40;99.90
25937;DHT22;13733;51.178;4.450;2023-09-30T07:42:10;14.30;99.90
25937;DHT22;13733;51.178;4.450;2023-09-30T07:44:36;14.30;99.90
25937;DHT22;13733;51.178;4.450;2023-09-30T07:47:05;14.60;99.90
25937;DHT22;13733;51.178;4.450;2023-09-30T07:49:35;14.80;99.90
25937;DHT22;13733;51.178;4.450;2023-09-30T07:52:01;14.90;99.90
25937;DHT22;13733;51.178;4.450;2023-09-30T07:54:26;15.10;99.90
25937;DHT22;13733;51.178;4.450;2023-09-30T07:56:52;15.30;99.90
25937;DHT22;13733;51.178;4.450;2023-09-30T07:59:19;15.40;99.90
25937;DHT22;13733;51.178;4.450;2023-09-30T08:01:45;15.40;99.90
25937;DHT22;13733;51.178;4.450;2023-09-30T08:04:12;15.60;99.90
25937;DHT22;13733;51.178;4.450;2023-09-30T08:06:37;15.70;99.90
25937;DHT22;13733;51.178;4.450;2023-09-30T08:09:03;15.80;99.90
25937;DHT22;13733;51.178;4.450;2023-09-30T08:11:35;15.90;99.90
25937;DHT22;13733;51.178;4.450;2023-09-30T08:14:04;15.90;99.90
25937;DHT22;13733;51.178;4.450;2023-09-30T08:16:39;15.90;99.90
25937;DHT22;13733;51.178;4.450;2023-09-30T08:19:06;15.90;99.90
25937;DHT22;13733;51.178;4.450;2023-09-30T08:21:33;15.90;99.90
25937;DHT22;13733;51.178;4.450;2023-09-30T08:23:59;15.90;99.90
25937;DHT22;13733;51.178;4.450;2023-09-30T08:26:25;15.80;99.90
25937;DHT22;13733;51.178;4.450;2023-09-30T08:28:51;15.90;99.90
25937;DHT22;13733;51.178;4.450;2023-09-30T08:31:17;16.00;99.90
25937;DHT22;13733;51.178;4.450;2023-09-30T08:33:43;15.90;99.90
25937;DHT22;13733;51.178;4.450;2023-09-30T08:36:11;16.00;99.90
25937;DHT22;13733;51.178;4.450;2023-09-30T08:38:38;16.30;99.90
25937;DHT22;13733;51.178;4.450;2023-09-30T08:41:05;16.50;99.90
25937;DHT22;13733;51.178;4.450;2023-09-30T08:43:31;16.60;99.90
25937;DHT22;13733;51.178;4.450;2023-09-30T08:46:02;16.90;99.90
25937;DHT22;13733;51.178;4.450;2023-09-30T08:48:32;17.10;99.90
25937;DHT22;13733;51.178;4.450;2023-09-30T08:50:59;17.20;99.90
25937;DHT22;13733;51.178;4.450;2023-09-30T08:53:26;17.30;99.90
25937;DHT22;13733;51.178;4.450;2023-09-30T08:55:56;17.40;99.90
25937;DHT22;13733;51.178;4.450;2023-09-30T08:58:28;17.50;99.90
25937;DHT22;13733;51.178;4.450;2023-09-30T09:00:55;17.60;99.90
25937;DHT22;13733;51.178;4.450;2023-09-30T09:03:21;17.70;99.90
25937;DHT22;13733;51.178;4.450;2023-09-30T09:05:56;17.70;99.90
25937;DHT22;13733;51.178;4.450;2023-09-30T09:08:24;17.70;99.90
25937;DHT22;13733;51.178;4.450;2023-09-30T09:10:57;17.60;99.90
25937;DHT22;13733;51.178;4.450;2023-09-30T09:13:27;17.60;99.90
25937;DHT22;13733;51.178;4.450;2023-09-30T09:16:09;17.70;99.90
25937;DHT22;13733;51.178;4.450;2023-09-30T09:18:35;17.70;99.90
25937;DHT22;13733;51.178;4.450;2023-09-30T09:23:41;18.00;99.90
25937;DHT22;13733;51.178;4.450;2023-09-30T09:26:09;18.00;99.90
25937;DHT22;13733;51.178;4.450;2023-09-30T09:28:36;17.80;99.90
25937;DHT22;13733;51.178;4.450;2023-09-30T09:31:20;17.80;99.90
25937;DHT22;13733;51.178;4.450;2023-09-30T09:33:46;17.60;99.90
25937;DHT22;13733;51.178;4.450;2023-09-30T09:36:12;17.80;99.90
25937;DHT22;13733;51.178;4.450;2023-09-30T09:39:06;18.10;99.90
25937;DHT22;13733;51.178;4.450;2023-09-30T09:41:31;18.50;99.90
25937;DHT22;13733;51.178;4.450;2023-09-30T09:43:59;18.80;99.90
25937;DHT22;13733;51.178;4.450;2023-09-30T09:46:26;18.90;99.90
25937;DHT22;13733;51.178;4.450;2023-09-30T09:48:53;19.10;99.90
25937;DHT22;13733;51.178;4.450;2023-09-30T09:51:20;19.00;99.90
25937;DHT22;13733;51.178;4.450;2023-09-30T09:53:48;19.10;99.90
25937;DHT22;13733;51.178;4.450;2023-09-30T09:56:15;19.40;99.90
25937;DHT22;13733;51.178;4.450;2023-09-30T09:58:42;19.40;99.90
25937;DHT22;13733;51.178;4.450;2023-09-30T10:01:10;19.10;99.90
25937;DHT22;13733;51.178;4.450;2023-09-30T10:03:38;19.30;99.90
25937;DHT22;13733;51.178;4.450;2023-09-30T10:06:04;19.40;99.90
25937;DHT22;13733;51.178;4.450;2023-09-30T10:08:36;19.50;99.90
25937;DHT22;13733;51.178;4.450;2023-09-30T10:11:03;19.70;99.90
25937;DHT22;13733;51.178;4.450;2023-09-30T10:13:57;19.60;99.90
25937;DHT22;13733;51.178;4.450;2023-09-30T10:21:34;20.10;99.90
25937;DHT22;13733;51.178;4.450;2023-09-30T10:29:41;20.60;99.90
25937;DHT22;13733;51.178;4.450;2023-09-30T10:32:10;20.60;99.90
25937;DHT22;13733;51.178;4.450;2023-09-30T10:34:36;20.40;99.90
25937;DHT22;13733;51.178;4.450;2023-09-30T10:37:21;20.60;99.90
25937;DHT22;13733;51.178;4.450;2023-09-30T10:39:59;21.10;99.90
25937;DHT22;13733;51.178;4.450;2023-09-30T10:42:49;21.40;99.90
25937;DHT22;13733;51.178;4.450;2023-09-30T10:45:46;21.60;99.90
25937;DHT22;13733;51.178;4.450;2023-09-30T10:50:59;22.20;99.90
25937;DHT22;13733;51.178;4.450;2023-09-30T10:53:28;22.20;99.90
25937;DHT22;13733;51.178;4.450;2023-09-30T10:55:56;22.30;99.90
25937;DHT22;13733;51.178;4.450;2023-09-30T11:01:08;22.60;99.90
25937;DHT22;13733;51.178;4.450;2023-09-30T11:03:34;22.10;99.90
25937;DHT22;13733;51.178;4.450;2023-09-30T11:06:00;22.00;99.90
25937;DHT22;13733;51.178;4.450;2023-09-30T11:08:28;22.40;99.90
25937;DHT22;13733;51.178;4.450;2023-09-30T11:10:55;22.90;99.90
25937;DHT22;13733;51.178;4.450;2023-09-30T11:13:22;23.50;99.90
25937;DHT22;13733;51.178;4.450;2023-09-30T11:16:00;24.00;99.90
25937;DHT22;13733;51.178;4.450;2023-09-30T11:18:27;24.20;99.90
25937;DHT22;13733;51.178;4.450;2023-09-30T11:21:12;24.10;99.90
25937;DHT22;13733;51.178;4.450;2023-09-30T11:23:40;23.80;99.90
25937;DHT22;13733;51.178;4.450;2023-09-30T11:26:07;23.50;99.90
25937;DHT22;13733;51.178;4.450;2023-09-30T11:28:42;23.50;99.90
25937;DHT22;13733;51.178;4.450;2023-09-30T11:31:09;23.90;99.40
25937;DHT22;13733;51.178;4.450;2023-09-30T11:33:53;23.70;99.60
25937;DHT22;13733;51.178;4.450;2023-09-30T11:36:20;23.60;99.90
25937;DHT22;13733;51.178;4.450;2023-09-30T11:38:48;24.00;98.00
25937;DHT22;13733;51.178;4.450;2023-09-30T11:41:15;24.00;97.90
25937;DHT22;13733;51.178;4.450;2023-09-30T11:44:19;24.00;99.70
25937;DHT22;13733;51.178;4.450;2023-09-30T11:46:58;24.90;94.80
25937;DHT22;13733;51.178;4.450;2023-09-30T11:49:43;24.80;94.20
25937;DHT22;13733;51.178;4.450;2023-09-30T11:52:15;24.70;89.70
25937;DHT22;13733;51.178;4.450;2023-09-30T11:54:42;24.60;81.90
25937;DHT22;13733;51.178;4.450;2023-09-30T11:57:12;24.30;89.90
25937;DHT22;13733;51.178;4.450;2023-09-30T11:59:41;24.80;80.60
25937;DHT22;13733;51.178;4.450;2023-09-30T12:02:09;25.10;81.80
25937;DHT22;13733;51.178;4.450;2023-09-30T12:04:35;24.90;78.70
25937;DHT22;13733;51.178;4.450;2023-09-30T12:07:02;24.60;76.50
25937;DHT22;13733;51.178;4.450;2023-09-30T12:09:28;24.70;70.10
25937;DHT22;13733;51.178;4.450;2023-09-30T12:11:56;25.70;63.90
25937;DHT22;13733;51.178;4.450;2023-09-30T12:14:24;26.10;59.80
25937;DHT22;13733;51.178;4.450;2023-09-30T12:16:50;25.90;62.10
25937;DHT22;13733;51.178;4.450;2023-09-30T12:19:20;25.60;66.40
25937;DHT22;13733;51.178;4.450;2023-09-30T12:21:46;25.70;67.70
25937;DHT22;13733;51.178;4.450;2023-09-30T12:24:14;25.90;66.50
25937;DHT22;13733;51.178;4.450;2023-09-30T12:26:49;26.60;65.00
25937;DHT22;13733;51.178;4.450;2023-09-30T12:29:19;27.20;64.70
25937;DHT22;13733;51.178;4.450;2023-09-30T12:31:49;28.70;58.40
25937;DHT22;13733;51.178;4.450;2023-09-30T12:34:15;29.90;54.40
25937;DHT22;13733;51.178;4.450;2023-09-30T12:36:41;31.10;49.70
25937;DHT22;13733;51.178;4.450;2023-09-30T12:39:08;32.00;46.80
25937;DHT22;13733;51.178;4.450;2023-09-30T12:41:41;31.90;44.40
25937;DHT22;13733;51.178;4.450;2023-09-30T12:44:08;31.80;43.20
25937;DHT22;13733;51.178;4.450;2023-09-30T12:46:34;32.00;42.30
25937;DHT22;13733;51.178;4.450;2023-09-30T12:49:06;32.30;43.00
25937;DHT22;13733;51.178;4.450;2023-09-30T12:51:33;32.60;42.30
25937;DHT22;13733;51.178;4.450;2023-09-30T12:53:59;32.60;42.20
25937;DHT22;13733;51.178;4.450;2023-09-30T12:56:25;31.80;40.60
25937;DHT22;13733;51.178;4.450;2023-09-30T12:58:51;31.60;41.40
25937;DHT22;13733;51.178;4.450;2023-09-30T13:01:17;30.50;42.50
25937;DHT22;13733;51.178;4.450;2023-09-30T13:03:46;29.20;45.10
25937;DHT22;13733;51.178;4.450;2023-09-30T13:06:14;28.00;47.70
25937;DHT22;13733;51.178;4.450;2023-09-30T13:08:41;27.50;49.50
25937;DHT22;13733;51.178;4.450;2023-09-30T13:11:08;27.70;50.00
25937;DHT22;13733;51.178;4.450;2023-09-30T13:13:34;27.20;51.30
25937;DHT22;13733;51.178;4.450;2023-09-30T13:16:01;27.00;52.00
25937;DHT22;13733;51.178;4.450;2023-09-30T13:18:27;26.90;53.80
25937;DHT22;13733;51.178;4.450;2023-09-30T13:20:53;26.60;54.30
25937;DHT22;13733;51.178;4.450;2023-09-30T13:23:20;26.50;55.30
25937;DHT22;13733;51.178;4.450;2023-09-30T13:25:46;26.20;55.70
25937;DHT22;13733;51.178;4.450;2023-09-30T13:28:13;25.60;57.00
25937;DHT22;13733;51.178;4.450;2023-09-30T13:30:39;25.60;60.80
25937;DHT22;13733;51.178;4.450;2023-09-30T13:33:05;25.90;59.70
25937;DHT22;13733;51.178;4.450;2023-09-30T13:35:31;26.00;59.50
25937;DHT22;13733;51.178;4.450;2023-09-30T13:37:57;26.40;57.80
25937;DHT22;13733;51.178;4.450;2023-09-30T13:40:23;27.10;56.40
25937;DHT22;13733;51.178;4.450;2023-09-30T13:42:49;28.00;54.10
25937;DHT22;13733;51.178;4.450;2023-09-30T13:45:15;28.70;53.50
25937;DHT22;13733;51.178;4.450;2023-09-30T13:47:44;29.30;50.40
25937;DHT22;13733;51.178;4.450;2023-09-30T13:50:10;29.80;50.10
25937;DHT22;13733;51.178;4.450;2023-09-30T13:52:39;30.00;46.30
25937;DHT22;13733;51.178;4.450;2023-09-30T13:55:05;30.10;45.90
25937;DHT22;13733;51.178;4.450;2023-09-30T13:57:31;29.80;44.10
25937;DHT22;13733;51.178;4.450;2023-09-30T13:59:57;29.20;44.30
25937;DHT22;13733;51.178;4.450;2023-09-30T14:02:24;29.40;45.00
25937;DHT22;13733;51.178;4.450;2023-09-30T14:04:51;29.70;45.10
25937;DHT22;13733;51.178;4.450;2023-09-30T14:07:19;29.30;45.30
25937;DHT22;13733;51.178;4.450;2023-09-30T14:09:45;29.60;46.10
25937;DHT22;13733;51.178;4.450;2023-09-30T14:12:10;29.70;45.10
25937;DHT22;13733;51.178;4.450;2023-09-30T14:14:37;29.40;45.30
25937;DHT22;13733;51.178;4.450;2023-09-30T14:17:03;29.80;45.40
25937;DHT22;13733;51.178;4.450;2023-09-30T14:19:40;30.50;45.20
25937;DHT22;13733;51.178;4.450;2023-09-30T14:22:06;31.10;43.80
25937;DHT22;13733;51.178;4.450;2023-09-30T14:24:34;30.90;43.00
25937;DHT22;13733;51.178;4.450;2023-09-30T14:27:03;30.80;43.50
25937;DHT22;13733;51.178;4.450;2023-09-30T14:29:31;30.70;41.80
25937;DHT22;13733;51.178;4.450;2023-09-30T14:31:57;30.60;42.80
25937;DHT22;13733;51.178;4.450;2023-09-30T14:34:23;30.70;43.20
25937;DHT22;13733;51.178;4.450;2023-09-30T14:36:49;31.40;41.30
25937;DHT22;13733;51.178;4.450;2023-09-30T14:39:17;31.10;41.50
25937;DHT22;13733;51.178;4.450;2023-09-30T14:41:44;30.20;42.70
25937;DHT22;13733;51.178;4.450;2023-09-30T14:44:10;29.40;44.00
25937;DHT22;13733;51.178;4.450;2023-09-30T14:46:38;28.50;46.10
25937;DHT22;13733;51.178;4.450;2023-09-30T14:49:05;28.30;46.50
25937;DHT22;13733;51.178;4.450;2023-09-30T14:51:35;27.90;46.90
25937;DHT22;13733;51.178;4.450;2023-09-30T14:54:01;27.90;47.80
25937;DHT22;13733;51.178;4.450;2023-09-30T14:56:28;27.70;47.80
25937;DHT22;13733;51.178;4.450;2023-09-30T14:58:53;28.10;48.30
25937;DHT22;13733;51.178;4.450;2023-09-30T15:01:19;28.40;47.60
25937;DHT22;13733;51.178;4.450;2023-09-30T15:03:46;28.40;47.80
25937;DHT22;13733;51.178;4.450;2023-09-30T15:06:12;27.90;48.00
25937;DHT22;13733;51.178;4.450;2023-09-30T15:08:38;27.70;49.10
25937;DHT22;13733;51.178;4.450;2023-09-30T15:11:05;27.60;49.10
25937;DHT22;13733;51.178;4.450;2023-09-30T15:13:31;27.90;48.80
25937;DHT22;13733;51.178;4.450;2023-09-30T15:15:58;28.10;47.80
25937;DHT22;13733;51.178;4.450;2023-09-30T15:18:24;28.50;47.20
25937;DHT22;13733;51.178;4.450;2023-09-30T15:20:50;28.80;46.60
25937;DHT22;13733;51.178;4.450;2023-09-30T15:23:16;28.80;46.30
25937;DHT22;13733;51.178;4.450;2023-09-30T15:25:43;28.80;46.60
25937;DHT22;13733;51.178;4.450;2023-09-30T15:28:09;28.80;46.60
25937;DHT22;13733;51.178;4.450;2023-09-30T15:30:35;28.30;46.60
25937;DHT22;13733;51.178;4.450;2023-09-30T15:33:01;27.70;47.80
25937;DHT22;13733;51.178;4.450;2023-09-30T15:35:30;27.50;49.00
25937;DHT22;13733;51.178;4.450;2023-09-30T15:37:56;27.50;49.00
25937;DHT22;13733;51.178;4.450;2023-09-30T15:40:23;27.70;49.30
25937;DHT22;13733;51.178;4.450;2023-09-30T15:42:49;27.80;49.40
25937;DHT22;13733;51.178;4.450;2023-09-30T15:45:15;28.20;48.60
25937;DHT22;13733;51.178;4.450;2023-09-30T15:47:43;28.60;48.10
25937;DHT22;13733;51.178;4.450;2023-09-30T15:50:10;28.80;47.10
25937;DHT22;13733;51.178;4.450;2023-09-30T15:52:36;29.00;47.00